Follett, Texas
Current Conditions -  °F | °C
As of 8:53 AM on Wednesday 22 Oct 2014 (Local Time) from KGAG Reporting Station
Clear Clear  
Wind Chill: 59°   Ceiling: Unl
Heat Index: 59°   Visibility: 10mi
Dew Point: 50°   Wind: 13mph
Humidity: 72%   Direction: 180°S
Pressure: 30.09"   Gusts: NA
Location:  36.43°N, 100.14°W
Report Text: KGAG 221353Z AUTO 18011KT 10SM CLR 15/10 A3009 RMK AO2 SLP176 T01500100
Loading
Personal Weather Stations






























Interactive Weather Map
Tropical Storm Tracking
New forecast layout! Learn more

10-Day Weather Forecast

Advertisements
Track Severe Weather on mobile